x

Bw Pioneer Buoy - Walker Ridge 249 (42360) Wave Buoy

5:00pm - Sun 20th Apr 2014 All times are UTC.

  • Sig Wave height 2.0ft
  • Peak Period 6s
  • Wind
    11mph, 13mph gusts
  • Sea Temp 74°f
  • Air Temp 71°f
  • Sea Pressure 1022mb

More Historic Weather Station data

Upgrade to MSW Pro to gain access to the past 30 days of data for over 8000 Wavebouys and Weather Stations around the globe.

Join Pro

Comparision Forecast

View Surf forecast
   
Sun 04/20 5:00pm 2ft 6s 11 13 mph 1022mb 74f 71f
4:00pm 2.5ft 6s 11 13 mph 1022.1mb 73f 71f
3:00pm 2.5ft 6s 9 11 mph 1021.8mb 73f 71f
2:00pm 2.5ft 6s 9 11 mph 1021mb 73f 71f
1:00pm 3ft 6s 11 13 mph 1020.9mb 73f 70f
12:00pm 2.5ft 6s 9 11 mph 1020.3mb 73f 70f
11:00am 3ft 7s 7 11 mph 1019.8mb 73f 69f
10:00am 3.5ft 7s 4 7 mph 1019.6mb 73f 69f
9:00am 3.5ft 7s 2 4 mph 1019.4mb 73f 69f
8:00am 4ft 7s 2 4 mph 1019.8mb 73f 69f
7:00am 4ft 7s 4 7 mph 1019.9mb 73f 69f
6:00am 4ft 7s 7 11 mph 1020.5mb 73f 69f
5:00am 4.5ft 7s 11 13 mph 1020.6mb 73f 69f
4:00am 4.5ft 7s 11 16 mph 1020.4mb 73f 69f
3:00am 5ft 7s 16 20 mph 1020.2mb 73f 69f
2:00am 5ft 8s 16 20 mph 1020mb 73f 69f
1:00am 5ft 7s 16 20 mph 1019.4mb 73f 69f
12:00am 4.5ft 7s 18 22 mph 1019.3mb 73f 69f
Sat 04/19 11:00pm 5ft 8s 18 22 mph 1019.1mb 73f 69f
10:00pm 5ft 8s 18 22 mph 1018.8mb 73f 68f
9:00pm 5ft 8s 18 22 mph 1019.3mb 73f 69f
8:00pm 5.5ft 8s 16 20 mph 1019.8mb 73f 68f
7:00pm 6ft 8s 13 18 mph 1020.5mb 73f 68f
6:00pm 6ft 8s 11 18 mph 1020.8mb 73f 68f
5:00pm 6ft 8s 16 20 mph 1020.8mb 73f 68f
4:00pm 6ft 8s 18 25 mph 1021mb 73f 68f
3:00pm 6.5ft 8s 18 22 mph 1020.6mb 73f 68f
2:00pm 6ft 8s 18 22 mph 1020.2mb 73f 68f
1:00pm 6ft 7s 20 27 mph 1019.7mb 73f 67f
12:00pm 6.5ft 7s 20 27 mph 1019.2mb 73f 68f
11:00am 6ft 7s 20 27 mph 1018.7mb 73f 68f
10:00am 6.5ft 8s 20 27 mph 1018.7mb 73f 68f
9:00am 6ft 8s 18 25 mph 1018.3mb 73f 69f
8:00am 6ft 8s 18 22 mph 1018.5mb 73f 69f
7:00am 6ft 7s 16 25 mph 1018.7mb 73f 69f
6:00am 6ft 8s 18 22 mph 1019mb 73f 69f
5:00am 6ft 7s 22 27 mph 1019.1mb 73f 70f
4:00am 5.5ft 7s 22 29 mph 1018.7mb 73f 70f
3:00am 6ft 8s 16 20 mph 1018.7mb 73f 70f
2:00am 5.5ft 9s 18 25 mph 1018.2mb 73f 70f
1:00am 6ft 8s 18 22 mph 1017.4mb 73f 69f
12:00am 6.5ft 6s 20 25 mph 1016.9mb 73f 70f
Fri 04/18 11:00pm 7ft 8s 22 27 mph 1017mb 73f 69f
10:00pm 6.5ft 9s 18 22 mph 1016.9mb 73f 69f
9:00pm 7ft 8s 18 25 mph 1016.8mb 73f 70f
8:00pm 7.5ft 9s 22 27 mph 1016.9mb 73f 69f
7:00pm 7ft 8s 22 27 mph 1017.2mb 73f 70f
6:00pm 7ft 9s 22 29 mph 1017.5mb 73f 70f
5:00pm 7ft 9s 20 27 mph 1017.6mb 73f 71f
4:00pm 7ft 8s 20 27 mph 1017.4mb - 71f
3:00pm 5.5ft 8s 18 25 mph 1017.2mb 73f 70f
2:00pm 6.5ft 8s 16 22 mph 1016.9mb 73f 71f
1:00pm 6.5ft 8s 20 27 mph 1016.1mb 73f 71f
12:00pm 6.5ft 8s 20 27 mph 1015.8mb 73f 71f
11:00am 7.5ft 8s 20 25 mph 1015.3mb 73f 71f
10:00am 6.5ft 7s 20 25 mph 1014.3mb 73f 71f
9:00am 6.5ft 7s 20 27 mph 1014.4mb 73f 71f
8:00am 7.5ft 8s 20 25 mph 1014.3mb 73f 71f
7:00am 7.5ft 8s 18 25 mph 1014.5mb 73f 71f
6:00am 8ft 8s 22 29 mph 1015.6mb 73f 70f
5:00am 7ft 7s 25 31 mph 1016.3mb 73f 70f
4:00am 7.5ft 7s 27 34 mph 1015.8mb 73f 70f
3:00am 8ft 7s 29 36 mph 1016.4mb 73f 69f
2:00am 9ft 7s 29 40 mph 1016.3mb 73f 69f
1:00am 8ft 7s 34 45 mph 1017.5mb 73f 68f
12:00am 8ft 7s 34 45 mph 1017.6mb 73f 67f
Thu 04/17 11:00pm 8ft 7s 36 47 mph 1017mb 73f 67f
10:00pm 8.5ft 7s 36 47 mph 1015mb 73f 67f
9:00pm 7.5ft 6s 34 47 mph 1013.8mb 73f 67f
8:00pm 7ft 6s 31 43 mph 1014.1mb 73f 68f
7:00pm 6.5ft 5s 34
mph
1014.9mb 73f 68f
6:00pm 5.5ft 7s 27 34 mph 1015.5mb 73f 71f
5:00pm 5.5ft 7s 22 29 mph 1016.6mb 73f 71f
4:00pm 5ft 7s 25 31 mph 1017.2mb 73f 72f
3:00pm 5ft 5s 22 29 mph 1017.6mb 73f 72f
2:00pm 5ft 7s 22 29 mph 1017mb 73f 71f
1:00pm 4.5ft 7s 22 27 mph 1017.2mb 73f 71f
12:00pm 5ft 7s 20 27 mph 1016.9mb 73f 71f
11:00am 5ft 6s 18 25 mph 1016.6mb 73f 71f
10:00am 5ft 7s 22 27 mph 1016.3mb 73f 70f
9:00am 5ft 7s 22 29 mph 1016.5mb 73f 69f
8:00am 5ft 7s 22 27 mph 1017.1mb 73f 69f
7:00am 5ft 7s 25 29 mph 1017mb 73f 68f
6:00am 5ft 7s 22 29 mph 1017.7mb 73f 67f
5:00am 5ft 6s 22 29 mph 1018.3mb 73f 67f
4:00am 5ft 7s 25 29 mph 1018.3mb 73f 67f
3:00am 5ft 7s 22 29 mph 1018.2mb 73f 67f
2:00am 4.5ft 7s 22 27 mph 1017.6mb 73f 67f
1:00am 4.5ft 7s 20 27 mph 1017mb 73f 67f
12:00am 4.5ft 8s 18 25 mph 1017.2mb 73f 67f
Wed 04/16 11:00pm 4.5ft 7s 16 22 mph 1017.4mb 73f 66f
10:00pm 5ft 6s 16 20 mph 1017.6mb 74f 66f
9:00pm 5ft 7s 13 20 mph 1018mb 73f 65f
8:00pm 5.5ft 6s 13 22 mph 1018.7mb 73f 65f